To NAV CANADA Home Page Login to a new session Search on AWWS site Feedback and Comments Disclaimer Vers la page française équivalente Tips FAQ What's new on the site To the Forecasts and Observations / NOTAM section To "File a Flight Plan" website Publications and other links Update of the User's profile FIC Telephone Numbers My Weather Data Folder Route Weather Data Regional Weather Data Local Weather Data To the Forecasts and Observations / NOTAM section
Request Generated 08/04/2015 at 15:50:46 UTC . Weather information available at that time is displayed.

METAR/TAF

HALIFAX/STANFIELD INTL/NS    

METAR CYHZ 041500Z 20011G20KT 15SM OVC005 22/20 A2995 RMK SF8 SLP141
DENSITY ALT 1400FT=
SPECI CYHZ 041439Z 21014KT 15SM OVC003 22/20 A2995 RMK SF8 SLP142
DENSITY ALT 1300FT=
METAR CYHZ 041400Z 21012KT 10SM OVC005 23/21 A2994 RMK SF8 SLP138
DENSITY ALT 1400FT=
SPECI CYHZ 041337Z 21010KT 15SM BKN007 23/20 A2993 RMK SF7 SLP135
DENSITY ALT 1400FT=
METAR CYHZ 041300Z 19008KT 15SM BKN005 23/20 A2994 RMK SF7 SLP137
DENSITY ALT 1400FT=

TAF CYHZ 041438Z 0415/0512 21012KT P6SM OVC006 TEMPO 0415/0418 OVC012
FM041800 20012G22KT P6SM BKN015 OVC040 TEMPO 0418/0422 SCT015
BKN040
FM042200 21015KT 4SM -SHRA BR SCT004 OVC012 PROB30 0422/0502
VRB15G25KT 2SM TSRA BR OVC004CB
FM050200 20012KT 2SM -DZ BR OVC004
RMK NXT FCST BY 041800Z=
Your time UTC time
Weather data provided by Environment Canada and NAV CANADA